Time;durP1;ratioP1;P1;durP2;ratioP2;P2;SDS_P1;SDS_P2;PMS_P1;PMS_P2;Temp;Humidity;BMP_temperature;BMP_pressure;BME280_temperature;BME280_humidity;BME280_pressure;Samples;Min_cycle;Max_cycle;Signal;HPM_P1;HPM_P2
2022/03/16 00:02:21;;;;;;;88.93;51.08;;;;;;;10.18;54.54;100011.44;4914140;29;20123;-82
2022/03/16 00:04:48;;;;;;;50.50;33.60;;;;;;;10.16;54.89;100015.88;4897877;29;20032;-82
2022/03/16 00:07:14;;;;;;;27.17;19.50;;;;;;;10.15;55.81;100026.31;4914221;29;20048;-82
2022/03/16 00:09:39;;;;;;;23.02;17.30;;;;;;;10.14;55.77;100019.44;4913681;29;20047;-82
2022/03/16 00:12:05;;;;;;;23.45;17.08;;;;;;;10.14;56.04;100020.28;4897817;29;20396;-82
2022/03/16 00:14:31;;;;;;;39.88;23.42;;;;;;;10.10;56.22;100017.84;4913690;29;20039;-82
2022/03/16 00:16:56;;;;;;;37.00;23.00;;;;;;;10.09;56.35;100027.41;4897519;29;20044;-81
2022/03/16 00:19:21;;;;;;;25.55;18.08;;;;;;;10.08;56.32;100028.31;4897811;29;20032;-81
2022/03/16 00:21:47;;;;;;;23.80;17.70;;;;;;;10.12;56.54;100029.06;4897586;29;20032;-80
2022/03/16 00:24:12;;;;;;;24.92;18.10;;;;;;;10.07;57.07;100029.25;4894255;29;20044;-82
2022/03/16 00:26:37;;;;;;;26.77;19.30;;;;;;;10.03;57.70;100022.47;4894352;29;20188;-82
2022/03/16 00:29:03;;;;;;;39.60;27.33;;;;;;;9.91;59.41;100033.34;4908970;29;20115;-82
2022/03/16 00:31:28;;;;;;;26.73;18.52;;;;;;;9.89;59.96;100032.53;4913375;29;20131;-82
2022/03/16 00:33:54;;;;;;;55.05;31.85;;;;;;;9.84;60.78;100037.91;4897329;29;20083;-82
2022/03/16 00:36:21;;;;;;;26.48;19.05;;;;;;;9.80;61.69;100038.91;4913293;29;20039;-82
2022/03/16 00:38:47;;;;;;;29.40;19.92;;;;;;;9.77;62.17;100036.44;4913219;29;20179;-81
2022/03/16 00:41:13;;;;;;;31.50;23.27;;;;;;;9.53;63.14;100032.16;4913402;29;20084;-82
2022/03/16 00:43:38;;;;;;;32.50;22.25;;;;;;;9.44;64.60;100051.53;4913070;29;20036;-81
2022/03/16 00:46:03;;;;;;;27.10;19.70;;;;;;;9.44;65.36;100061.94;4913282;29;20043;-82
2022/03/16 00:48:29;;;;;;;29.23;21.85;;;;;;;9.37;66.78;100057.84;4897482;29;20038;-82
2022/03/16 00:50:54;;;;;;;30.08;21.15;;;;;;;9.41;66.62;100049.88;4913130;29;20044;-82
2022/03/16 00:53:20;;;;;;;36.33;22.98;;;;;;;9.39;66.77;100050.81;4913217;29;20386;-81
2022/03/16 00:55:45;;;;;;;33.38;23.38;;;;;;;9.33;67.49;100049.28;4913726;29;20044;-81
2022/03/16 00:58:10;;;;;;;32.63;23.15;;;;;;;9.27;68.20;100054.72;4914396;29;20028;-82
2022/03/16 01:00:36;;;;;;;30.15;21.48;;;;;;;9.24;69.47;100060.00;4914074;29;20043;-82
2022/03/16 01:03:01;;;;;;;33.90;23.40;;;;;;;9.20;70.89;100058.41;4916045;29;20024;-82
2022/03/16 01:05:27;;;;;;;33.53;23.55;;;;;;;9.06;72.43;100051.09;4914544;29;20608;-82
2022/03/16 01:07:52;;;;;;;33.78;22.88;;;;;;;9.03;73.66;100058.16;4914203;29;20024;-81
2022/03/16 01:10:17;;;;;;;33.38;23.42;;;;;;;8.97;74.59;100060.06;4914376;29;20028;-82
2022/03/16 01:12:43;;;;;;;32.15;23.30;;;;;;;8.86;76.09;100054.38;4913843;29;20140;-82
2022/03/16 01:15:09;;;;;;;35.15;24.67;;;;;;;8.79;78.29;100049.41;4914250;29;20084;-81
2022/03/16 01:17:35;;;;;;;40.05;27.58;;;;;;;8.79;78.58;100060.66;4914452;29;20032;-81
2022/03/16 01:20:00;;;;;;;31.58;21.92;;;;;;;8.73;79.57;100058.25;4915736;29;20046;-81
2022/03/16 01:22:26;;;;;;;23.58;18.50;;;;;;;8.69;79.97;100052.31;4915556;29;20031;-81
2022/03/16 01:24:51;;;;;;;31.80;23.30;;;;;;;8.71;80.48;100070.44;4913899;29;20043;-81
2022/03/16 01:27:16;;;;;;;24.85;19.50;;;;;;;8.66;81.16;100061.94;4914175;29;20063;-81
2022/03/16 01:29:42;;;;;;;23.55;19.83;;;;;;;8.47;81.91;100033.16;4913833;29;20028;-81
2022/03/16 01:32:08;;;;;;;25.65;19.27;;;;;;;8.55;82.39;100053.66;4912850;29;20040;-81
2022/03/16 01:34:35;;;;;;;25.50;19.63;;;;;;;8.50;84.03;100043.41;4897772;29;20060;-82
2022/03/16 01:37:00;;;;;;;26.40;20.58;;;;;;;8.57;84.06;100057.06;4900431;29;20123;-82
2022/03/16 01:39:26;;;;;;;28.70;21.40;;;;;;;8.53;83.71;100056.31;4900651;29;20232;-82
2022/03/16 01:41:51;;;;;;;24.88;20.35;;;;;;;8.46;84.22;100052.19;4916234;29;20039;-81
2022/03/16 01:44:17;;;;;;;26.60;21.95;;;;;;;8.43;84.65;100060.94;4900515;29;20496;-81
2022/03/16 01:46:43;;;;;;;30.48;23.10;;;;;;;8.38;84.96;100057.63;4900350;29;20136;-82
2022/03/16 01:49:08;;;;;;;46.05;31.67;;;;;;;8.35;84.79;100056.84;4916378;29;20454;-81
2022/03/16 01:51:34;;;;;;;57.40;37.70;;;;;;;8.22;86.45;100049.44;4900428;29;20091;-81
2022/03/16 01:53:59;;;;;;;38.67;29.13;;;;;;;8.12;88.09;100045.41;4900163;29;20028;-82
2022/03/16 01:56:25;;;;;;;52.67;35.15;;;;;;;8.15;89.13;100066.09;4916043;29;20042;-81
2022/03/16 01:58:50;;;;;;;47.05;29.52;;;;;;;8.11;89.72;100063.63;4915920;29;20048;-81
2022/03/16 02:01:17;;;;;;;49.88;34.05;;;;;;;8.06;90.64;100066.38;4900247;29;20112;-81
2022/03/16 02:03:43;;;;;;;39.70;27.35;;;;;;;7.96;92.11;100067.50;4911854;29;20101;-81
2022/03/16 02:06:09;;;;;;;45.17;31.83;;;;;;;8.02;92.06;100082.91;4917225;29;20115;-82
2022/03/16 02:08:40;;;;;;;46.78;33.28;;;;;;;7.93;92.84;100073.66;4917110;29;20042;-81
2022/03/16 02:11:06;;;;;;;61.95;40.67;;;;;;;7.93;93.76;100088.38;4916994;29;20447;-81
2022/03/16 02:13:34;;;;;;;51.28;34.05;;;;;;;7.86;95.03;100087.69;4917934;29;20127;-81
2022/03/16 02:16:00;;;;;;;77.90;51.92;;;;;;;7.81;96.16;100091.31;4916834;29;20055;-82
2022/03/16 02:18:26;;;;;;;61.10;40.03;;;;;;;7.77;96.98;100097.47;4917028;29;20504;-81
2022/03/16 02:20:51;;;;;;;43.30;31.50;;;;;;;7.62;98.33;100090.97;4918260;29;20028;-82
2022/03/16 02:23:17;;;;;;;40.83;29.02;;;;;;;7.60;98.91;100093.59;4916896;29;20129;-81
2022/03/16 02:25:51;;;;;;;32.15;23.80;;;;;;;7.52;99.32;100085.19;4916582;29;20392;-81
2022/03/16 02:28:18;;;;;;;42.92;31.92;;;;;;;7.57;100.00;100103.19;4916717;29;20028;-82
2022/03/16 02:30:44;;;;;;;35.88;27.33;;;;;;;7.58;100.00;100116.09;4916749;29;20024;-81
2022/03/16 02:33:10;;;;;;;35.05;28.20;;;;;;;7.52;100.00;100108.50;4916959;29;20095;-81
2022/03/16 02:35:35;;;;;;;39.63;30.52;;;;;;;7.48;100.00;100112.06;4916690;29;20489;-82
2022/03/16 02:38:01;;;;;;;36.20;28.08;;;;;;;7.29;100.00;100088.41;4916370;29;20381;-82
2022/03/16 02:40:27;;;;;;;31.27;26.48;;;;;;;7.36;100.00;100096.84;4916505;29;20042;-82
2022/03/16 02:42:53;;;;;;;36.55;25.73;;;;;;;7.43;100.00;100119.13;4916140;29;20036;-81
2022/03/16 02:45:18;;;;;;;36.00;27.25;;;;;;;7.40;100.00;100116.59;4917932;29;20071;-81
2022/03/16 02:47:44;;;;;;;34.08;26.80;;;;;;;7.40;100.00;100119.19;4916262;29;20071;-82
2022/03/16 02:50:12;;;;;;;31.02;24.90;;;;;;;7.41;100.00;100115.69;4916419;29;20604;-81
2022/03/16 02:52:38;;;;;;;36.78;26.25;;;;;;;7.37;100.00;100119.25;4916390;29;20434;-82
2022/03/16 02:55:05;;;;;;;34.05;26.38;;;;;;;7.38;100.00;100123.59;4916069;29;20436;-82
2022/03/16 02:57:31;;;;;;;30.67;25.35;;;;;;;7.41;100.00;100128.66;4916011;29;20396;-82
2022/03/16 02:59:56;;;;;;;33.35;26.30;;;;;;;7.40;100.00;100125.22;4916176;29;20028;-82
2022/03/16 03:02:21;;;;;;;28.40;24.73;;;;;;;7.40;100.00;100124.38;4916251;29;20032;-82
2022/03/16 03:04:47;;;;;;;33.47;26.65;;;;;;;7.35;100.00;100121.91;4915904;29;20032;-82
2022/03/16 03:07:12;;;;;;;32.38;25.75;;;;;;;7.38;100.00;100121.84;4914732;29;20099;-82
2022/03/16 03:09:38;;;;;;;31.23;26.05;;;;;;;7.36;100.00;100133.97;4915159;29;20079;-81
2022/03/16 03:12:04;;;;;;;29.20;24.35;;;;;;;7.31;100.00;100122.03;4914312;29;20138;-82
2022/03/16 03:14:30;;;;;;;30.30;25.40;;;;;;;7.35;100.00;100131.44;4898926;29;20073;-81
2022/03/16 03:16:56;;;;;;;29.10;24.77;;;;;;;7.37;100.00;100133.06;4898586;29;20183;-81
2022/03/16 03:19:21;;;;;;;30.45;24.60;;;;;;;7.38;100.00;100139.97;4914594;29;20036;-82
2022/03/16 03:21:47;;;;;;;30.50;25.17;;;;;;;7.40;100.00;100143.38;4898624;29;20467;-81
2022/03/16 03:24:13;;;;;;;33.03;25.50;;;;;;;7.41;100.00;100154.56;4898864;29;20039;-82
2022/03/16 03:26:38;;;;;;;34.78;26.73;;;;;;;7.33;100.00;100147.03;4898646;29;20040;-81
2022/03/16 03:29:04;;;;;;;32.83;26.63;;;;;;;7.32;100.00;100152.22;4898481;29;20052;-81
2022/03/16 03:31:30;;;;;;;38.85;28.38;;;;;;;7.31;100.00;100163.50;4898636;29;20028;-81
2022/03/16 03:33:55;;;;;;;38.40;29.30;;;;;;;7.28;100.00;100159.22;4898339;29;20416;-81
2022/03/16 03:36:21;;;;;;;40.75;29.45;;;;;;;7.30;100.00;100174.75;4898471;29;20087;-81
2022/03/16 03:38:46;;;;;;;40.33;28.70;;;;;;;7.24;100.00;100176.56;4910045;29;20051;-81
2022/03/16 03:41:11;;;;;;;37.15;29.05;;;;;;;7.19;100.00;100168.06;4915409;29;20028;-81
2022/03/16 03:43:37;;;;;;;38.90;30.25;;;;;;;7.14;100.00;100172.53;4915705;29;20028;-81
2022/03/16 03:46:02;;;;;;;43.67;30.50;;;;;;;7.14;100.00;100184.63;4916588;29;20122;-81
2022/03/16 03:48:28;;;;;;;43.25;31.73;;;;;;;7.09;100.00;100176.13;4915440;29;20068;-81
2022/03/16 03:50:53;;;;;;;43.10;30.08;;;;;;;7.10;100.00;100188.19;4915161;29;20035;-81
2022/03/16 03:53:18;;;;;;;46.63;31.92;;;;;;;7.09;100.00;100186.47;4915234;29;20168;-82
2022/03/16 03:55:44;;;;;;;45.42;34.33;;;;;;;7.05;100.00;100192.63;4914889;29;20027;-82
2022/03/16 03:58:09;;;;;;;43.70;31.90;;;;;;;6.98;100.00;100184.97;4932044;29;20043;-82
2022/03/16 04:00:35;;;;;;;47.03;32.97;;;;;;;6.95;100.00;100191.97;4916947;29;20043;-81
2022/03/16 04:03:00;;;;;;;47.85;34.53;;;;;;;6.98;100.00;100199.66;4916745;29;20071;-82
2022/03/16 04:05:25;;;;;;;46.38;34.00;;;;;;;6.87;100.00;100183.50;4916980;29;20527;-82
2022/03/16 04:07:51;;;;;;;47.65;33.15;;;;;;;6.91;100.00;100198.97;4932490;29;20058;-82
2022/03/16 04:10:17;;;;;;;46.75;34.08;;;;;;;6.93;100.00;100217.06;4913503;29;20543;-82
2022/03/16 04:12:43;;;;;;;47.38;33.75;;;;;;;6.73;100.00;100181.25;4913524;29;20060;-82
2022/03/16 04:15:09;;;;;;;49.88;35.60;;;;;;;6.88;100.00;100211.97;4897570;29;20064;-82
2022/03/16 04:17:35;;;;;;;46.15;34.50;;;;;;;6.88;100.00;100227.53;4897803;29;20548;-82
2022/03/16 04:20:00;;;;;;;50.25;36.42;;;;;;;6.86;100.00;100226.69;4894347;29;20043;-81
2022/03/16 04:22:27;;;;;;;53.60;39.08;;;;;;;6.85;100.00;100214.63;4879064;29;20048;-82
2022/03/16 04:24:53;;;;;;;52.40;38.25;;;;;;;6.84;100.00;100233.66;4878604;29;20043;-81
2022/03/16 04:27:20;;;;;;;60.45;39.17;;;;;;;6.83;100.00;100231.09;4879033;29;20445;-81
2022/03/16 04:29:46;;;;;;;51.55;36.83;;;;;;;6.80;100.00;100232.00;4878953;29;20043;-81
2022/03/16 04:32:11;;;;;;;53.75;38.85;;;;;;;6.76;100.00;100230.38;4894320;29;20037;-81
2022/03/16 04:34:36;;;;;;;49.20;37.30;;;;;;;6.76;100.00;100232.97;4878875;29;20032;-81
2022/03/16 04:37:02;;;;;;;47.72;37.00;;;;;;;6.74;100.00;100234.72;4894259;29;20044;-81
2022/03/16 04:39:27;;;;;;;52.38;37.20;;;;;;;6.70;100.00;100236.53;4894377;29;20040;-81
2022/03/16 04:41:53;;;;;;;52.53;36.35;;;;;;;6.72;100.00;100249.44;4908379;29;20135;-81
2022/03/16 04:44:18;;;;;;;50.70;38.50;;;;;;;6.65;100.00;100246.13;4913499;29;20060;-82
2022/03/16 04:46:44;;;;;;;54.83;37.30;;;;;;;6.68;100.00;100248.66;4897489;29;20497;-81
2022/03/16 04:49:09;;;;;;;54.42;38.72;;;;;;;6.66;100.00;100260.78;4894043;29;20037;-81
2022/03/16 04:51:35;;;;;;;61.13;41.72;;;;;;;6.64;100.00;100262.53;4897363;29;20082;-81
2022/03/16 04:54:00;;;;;;;56.42;40.55;;;;;;;6.61;100.00;100262.59;4912970;29;20036;-81
2022/03/16 04:56:25;;;;;;;62.67;42.38;;;;;;;6.60;100.00;100265.22;4913182;29;20032;-81
2022/03/16 04:58:51;;;;;;;62.95;42.88;;;;;;;6.61;100.00;100272.94;4913074;29;20036;-81
2022/03/16 05:01:16;;;;;;;62.92;43.05;;;;;;;6.60;100.00;100268.66;4913145;29;20402;-81
2022/03/16 05:03:42;;;;;;;63.45;42.05;;;;;;;6.59;100.00;100273.88;4913120;29;20484;-81
2022/03/16 05:06:07;;;;;;;66.05;44.67;;;;;;;6.58;100.00;100278.22;4897174;29;20036;-82
2022/03/16 05:08:37;;;;;;;64.55;44.78;;;;;;;6.58;100.00;100292.91;4912984;29;20853;-81
2022/03/16 05:11:03;;;;;;;65.22;44.53;;;;;;;6.55;100.00;100290.34;4915830;29;20125;-82
2022/03/16 05:13:29;;;;;;;65.90;46.15;;;;;;;6.54;100.00;100293.84;4916771;29;20099;-81
2022/03/16 05:15:54;;;;;;;63.58;46.50;;;;;;;6.47;100.00;100283.59;4916490;29;20064;-82
2022/03/16 05:18:20;;;;;;;64.32;46.25;;;;;;;6.55;100.00;100287.78;4916758;29;20039;-81
2022/03/16 05:20:45;;;;;;;68.38;48.00;;;;;;;6.54;100.00;100296.41;4917596;29;20484;-81
2022/03/16 05:23:11;;;;;;;66.80;48.10;;;;;;;6.40;100.00;100270.78;4917599;29;20032;-81
2022/03/16 05:25:36;;;;;;;66.30;47.15;;;;;;;6.50;100.00;100282.69;4918068;29;20024;-81
2022/03/16 05:28:02;;;;;;;64.72;46.35;;;;;;;6.59;100.00;100304.94;4917466;29;20024;-81
2022/03/16 05:30:28;;;;;;;62.72;48.47;;;;;;;6.48;100.00;100289.63;4917813;29;20586;-81
2022/03/16 05:32:56;;;;;;;69.55;51.05;;;;;;;6.53;100.00;100297.28;4917523;29;20024;-81
2022/03/16 05:35:21;;;;;;;66.70;48.35;;;;;;;6.57;100.00;100307.53;4919124;29;20036;-82
2022/03/16 05:37:47;;;;;;;70.70;48.97;;;;;;;6.53;100.00;100298.16;4917564;29;20028;-82
2022/03/16 05:40:13;;;;;;;80.00;51.75;;;;;;;6.47;100.00;100287.91;4917544;29;20036;-82
2022/03/16 05:42:39;;;;;;;106.22;60.35;;;;;;;6.56;100.00;100302.41;4917688;29;20032;-81
2022/03/16 05:45:06;;;;;;;162.45;86.97;;;;;;;6.45;100.00;100300.91;4918463;29;20035;-81
2022/03/16 05:47:32;;;;;;;162.57;84.43;;;;;;;6.50;100.00;100314.59;4918815;29;20119;-81
2022/03/16 05:49:58;;;;;;;148.60;75.35;;;;;;;6.56;100.00;100325.69;4917206;29;20024;-81
2022/03/16 05:52:25;;;;;;;132.15;73.75;;;;;;;6.58;100.00;100322.22;4917339;29;20038;-81
2022/03/16 05:54:55;;;;;;;135.35;72.78;;;;;;;6.58;100.00;100329.13;4917487;29;20031;-81
2022/03/16 05:57:21;;;;;;;;;;;;;;;6.61;100.00;100336.81;4919290;29;20395;-81
2022/03/16 05:59:47;;;;;;;114.72;63.55;;;;;;;6.50;100.00;100322.34;4919188;29;19922;-81
2022/03/16 06:02:13;;;;;;;111.88;67.13;;;;;;;6.59;100.00;100334.25;4918854;29;20038;-83
2022/03/16 06:04:39;;;;;;;93.68;59.90;;;;;;;6.50;100.00;100324.94;4919143;29;20040;-81
2022/03/16 06:07:06;;;;;;;89.90;58.70;;;;;;;6.61;100.00;100355.78;4934920;29;20043;-81
2022/03/16 06:09:32;;;;;;;82.70;55.95;;;;;;;6.63;100.00;100354.03;4919101;29;20064;-82
2022/03/16 06:11:58;;;;;;;78.13;54.15;;;;;;;6.64;100.00;100362.66;4918545;29;20051;-81
2022/03/16 06:14:23;;;;;;;76.50;54.25;;;;;;;6.56;100.00;100359.34;4918941;29;20453;-81
2022/03/16 06:16:50;;;;;;;78.47;53.38;;;;;;;6.62;100.00;100361.84;4918719;29;20043;-81
2022/03/16 06:19:15;;;;;;;75.25;51.92;;;;;;;6.63;100.00;100372.16;4918594;29;20123;-81
2022/03/16 06:21:41;;;;;;;77.88;53.25;;;;;;;6.69;100.00;100374.59;4934453;29;20118;-81
2022/03/16 06:24:06;;;;;;;82.88;56.55;;;;;;;6.69;100.00;100371.16;4918517;29;20043;-81
2022/03/16 06:26:32;;;;;;;110.38;64.05;;;;;;;6.79;100.00;100383.06;4918667;29;20047;-81
2022/03/16 06:28:57;;;;;;;117.03;66.70;;;;;;;6.92;100.00;100396.63;4916200;29;20790;-81
2022/03/16 06:31:23;;;;;;;112.35;69.38;;;;;;;6.97;100.00;100397.38;4916672;29;20098;-82
2022/03/16 06:33:49;;;;;;;103.85;65.00;;;;;;;7.03;100.00;100394.66;4916944;29;20417;-82
2022/03/16 06:36:14;;;;;;;101.35;63.58;;;;;;;7.16;100.00;100397.84;4916547;29;20036;-83
2022/03/16 06:38:40;;;;;;;85.82;61.95;;;;;;;7.27;100.00;100405.41;4916770;29;20055;-82
2022/03/16 06:41:05;;;;;;;85.28;60.40;;;;;;;7.37;100.00;100412.94;4916418;29;20055;-82
2022/03/16 06:43:31;;;;;;;82.78;59.05;;;;;;;7.53;100.00;100421.25;4916494;29;20396;-82
2022/03/16 06:45:56;;;;;;;82.63;59.25;;;;;;;7.63;100.00;100406.38;4916053;29;20032;-82
2022/03/16 06:48:23;;;;;;;80.30;59.33;;;;;;;7.78;100.00;100412.94;4916287;29;20028;-82
2022/03/16 06:50:50;;;;;;;79.03;56.75;;;;;;;8.02;100.00;100422.75;4916605;29;20448;-82
2022/03/16 06:53:15;;;;;;;78.85;56.90;;;;;;;8.22;100.00;100425.72;4916099;29;20032;-87
2022/03/16 06:55:41;;;;;;;70.78;53.35;;;;;;;8.38;100.00;100431.38;4917084;29;20024;-88
2022/03/16 06:58:06;;;;;;;73.10;53.30;;;;;;;8.52;100.00;100436.25;4916226;29;20032;-93
2022/03/16 07:00:32;;;;;;;76.72;58.88;;;;;;;8.73;100.00;100433.09;4921726;29;20036;-83
2022/03/16 07:03:05;;;;;;;68.05;52.53;;;;;;;9.00;100.00;100436.69;4936215;29;20043;-82
2022/03/16 07:05:33;;;;;;;69.18;51.35;;;;;;;9.14;100.00;100443.22;4934991;29;20122;-82
2022/03/16 07:08:03;;;;;;;69.28;51.75;;;;;;;9.22;100.00;100444.72;4934759;29;20035;-82
2022/03/16 07:10:30;;;;;;;70.70;53.08;;;;;;;9.13;100.00;100433.75;4935103;28;20051;-81
2022/03/16 07:12:56;;;;;;;76.75;53.13;;;;;;;9.26;100.00;100437.69;4934836;29;20056;-82
2022/03/16 07:15:24;;;;;;;72.32;56.58;;;;;;;9.37;100.00;100440.84;4934780;29;20048;-81
2022/03/16 07:17:49;;;;;;;69.05;53.45;;;;;;;9.52;100.00;100443.88;4952655;28;20042;-82
2022/03/16 07:20:15;;;;;;;70.90;52.35;;;;;;;9.78;100.00;100443.13;4936561;29;20043;-82
2022/03/16 07:22:41;;;;;;;69.07;51.67;;;;;;;9.82;100.00;100421.28;4936832;29;20119;-82
2022/03/16 07:25:09;;;;;;;68.57;51.65;;;;;;;9.88;100.00;100429.75;4952530;29;20035;-82
2022/03/16 07:27:36;;;;;;;65.95;52.42;;;;;;;9.99;100.00;100442.44;4952717;28;20059;-82
2022/03/16 07:30:04;;;;;;;68.63;51.03;;;;;;;9.84;100.00;100443.78;4936372;29;20031;-81
2022/03/16 07:32:29;;;;;;;71.13;50.92;;;;;;;9.40;100.00;100447.72;4935961;29;20101;-82
2022/03/16 07:34:54;;;;;;;69.90;51.83;;;;;;;8.92;100.00;100437.78;4936466;29;20035;-82
2022/03/16 07:37:22;;;;;;;73.68;53.35;;;;;;;8.66;100.00;100449.72;4952187;28;20050;-82
2022/03/16 07:39:47;;;;;;;73.30;55.92;;;;;;;8.29;100.00;100448.91;4936408;29;20031;-82
2022/03/16 07:42:14;;;;;;;77.03;54.95;;;;;;;8.04;100.00;100461.59;4936156;29;20027;-82
2022/03/16 07:44:39;;;;;;;77.90;58.35;;;;;;;7.86;100.00;100452.50;4952329;28;20042;-82
2022/03/16 07:47:05;;;;;;;75.45;55.60;;;;;;;7.70;100.00;100446.81;4935995;29;20301;-81
2022/03/16 07:49:30;;;;;;;73.15;55.22;;;;;;;7.69;100.00;100465.84;4933912;29;20047;-81
2022/03/16 07:51:56;;;;;;;83.35;58.90;;;;;;;7.66;100.00;100465.91;4934362;29;20047;-81
2022/03/16 07:54:21;;;;;;;70.47;53.53;;;;;;;7.61;100.00;100472.94;4935627;29;20527;-80
2022/03/16 07:56:47;;;;;;;73.20;54.20;;;;;;;7.46;100.00;100463.75;4934114;29;20115;-81
2022/03/16 07:59:14;;;;;;;71.55;53.90;;;;;;;7.52;100.00;100476.59;4935161;29;20027;-81
2022/03/16 08:01:41;;;;;;;71.55;52.80;;;;;;;7.45;100.00;100485.34;4934008;29;20436;-81
2022/03/16 08:04:07;;;;;;;70.75;52.20;;;;;;;7.37;100.00;100488.09;4933939;29;20032;-82
2022/03/16 08:06:33;;;;;;;70.43;52.80;;;;;;;7.29;100.00;100497.78;4935373;29;20079;-81
2022/03/16 08:08:59;;;;;;;71.32;54.08;;;;;;;7.21;100.00;100477.22;4933515;29;20039;-80
2022/03/16 08:11:25;;;;;;;74.70;54.63;;;;;;;7.31;100.00;100493.41;4934944;29;20023;-79
2022/03/16 08:13:50;;;;;;;74.35;53.60;;;;;;;7.34;100.00;100502.88;4933597;29;20059;-79
2022/03/16 08:16:16;;;;;;;80.15;55.60;;;;;;;7.33;100.00;100499.44;4934644;29;20044;-81
2022/03/16 08:18:41;;;;;;;70.90;52.67;;;;;;;7.34;100.00;100513.25;4934490;29;20082;-80
2022/03/16 08:21:07;;;;;;;75.97;54.25;;;;;;;7.32;100.00;100508.06;4934849;29;20089;-79
2022/03/16 08:23:33;;;;;;;70.43;51.95;;;;;;;7.35;100.00;100502.84;4934926;29;20027;-79
2022/03/16 08:25:58;;;;;;;71.43;52.28;;;;;;;7.35;100.00;100497.66;4933646;29;20083;-79
2022/03/16 08:28:25;;;;;;;68.70;51.58;;;;;;;7.42;100.00;100501.00;4933295;29;20031;-79
2022/03/16 08:30:50;;;;;;;71.28;52.90;;;;;;;7.58;100.00;100528.28;4934856;29;20078;-79
2022/03/16 08:33:18;;;;;;;73.90;53.15;;;;;;;7.65;100.00;100518.66;4934925;29;20396;-79
2022/03/16 08:35:44;;;;;;;75.60;53.50;;;;;;;7.75;100.00;100526.22;4933633;29;20028;-80
2022/03/16 08:38:09;;;;;;;73.05;53.42;;;;;;;7.91;100.00;100531.06;4933536;29;20024;-80
2022/03/16 08:40:35;;;;;;;72.43;53.35;;;;;;;8.03;100.00;100527.38;4934986;29;20423;-80
2022/03/16 08:43:00;;;;;;;71.95;52.80;;;;;;;8.27;100.00;100536.34;4933654;29;20051;-80
2022/03/16 08:45:27;;;;;;;74.50;51.40;;;;;;;8.42;100.00;100533.41;4933609;28;20102;-80
2022/03/16 08:47:52;;;;;;;70.45;52.40;;;;;;;8.68;100.00;100543.16;4932417;29;20035;-80
2022/03/16 08:50:18;;;;;;;71.90;53.72;;;;;;;8.80;100.00;100534.22;4932413;29;20515;-80
2022/03/16 08:52:44;;;;;;;71.65;52.53;;;;;;;9.05;100.00;100544.84;4916511;29;20480;-84
2022/03/16 08:55:12;;;;;;;71.45;52.60;;;;;;;9.15;100.00;100541.97;4916545;29;20047;-84
2022/03/16 08:57:38;;;;;;;69.75;50.83;;;;;;;9.32;100.00;100541.53;4912987;29;20584;-83
2022/03/16 09:00:04;;;;;;;65.40;51.38;;;;;;;9.42;100.00;100544.72;4913472;29;20044;-84
2022/03/16 09:02:29;;;;;;;68.57;51.70;;;;;;;9.41;100.00;100546.47;4898242;29;20728;-85
2022/03/16 09:04:55;;;;;;;66.30;49.00;;;;;;;9.46;100.00;100554.13;4898152;29;20036;-85
2022/03/16 09:07:21;;;;;;;62.42;48.60;;;;;;;9.65;100.00;100547.53;4898031;29;20036;-85
2022/03/16 09:09:46;;;;;;;70.60;50.72;;;;;;;9.79;100.00;100541.94;4898254;29;20091;-85
2022/03/16 09:12:12;;;;;;;66.63;51.28;;;;;;;10.10;100.00;100562.69;4897058;29;20047;-83
2022/03/16 09:14:40;;;;;;;71.65;52.33;;;;;;;10.15;100.00;100552.97;4897375;29;20052;-86
2022/03/16 09:17:06;;;;;;;60.92;48.75;;;;;;;10.10;100.00;100559.22;4897575;29;20040;-86
2022/03/16 09:19:33;;;;;;;70.03;49.05;;;;;;;10.13;100.00;100569.56;4897792;29;20044;-85
2022/03/16 09:22:00;;;;;;;69.15;49.95;;;;;;;10.16;100.00;100556.47;4898415;29;20176;-85
2022/03/16 09:24:26;;;;;;;66.70;50.35;;;;;;;10.32;100.00;100577.69;4932741;29;20042;-85
2022/03/16 09:26:51;;;;;;;67.30;49.83;;;;;;;10.29;99.52;100559.56;4931965;28;20686;-84
2022/03/16 09:29:18;;;;;;;89.53;59.25;;;;;;;10.29;99.36;100564.78;4916149;29;20044;-82
2022/03/16 09:31:44;;;;;;;63.08;47.78;;;;;;;10.23;99.36;100552.75;4931848;29;20095;-82
2022/03/16 09:34:10;;;;;;;60.28;48.42;;;;;;;10.44;97.98;100564.28;4931707;29;20119;-81
2022/03/16 09:36:42;;;;;;;63.88;48.53;;;;;;;10.61;97.32;100582.81;4931974;29;20040;-79
2022/03/16 09:39:08;;;;;;;96.93;64.57;;;;;;;10.69;97.01;100587.81;4931478;29;20063;-79
2022/03/16 09:41:36;;;;;;;65.28;48.20;;;;;;;10.69;95.75;100585.19;4931494;29;20448;-79
2022/03/16 09:44:03;;;;;;;64.28;47.90;;;;;;;10.63;95.69;100574.97;4931821;29;20529;-87
2022/03/16 09:46:39;;;;;;;59.70;46.55;;;;;;;10.68;94.79;100584.34;4932646;28;20147;-88
2022/03/16 09:49:04;;;;;;;54.97;42.88;;;;;;;10.65;92.66;100574.00;4932442;29;20473;-84
2022/03/16 09:51:35;;;;;;;56.60;43.88;;;;;;;10.92;92.02;100589.69;4916600;29;20074;-87
2022/03/16 09:54:02;;;;;;;51.30;40.53;;;;;;;10.98;90.52;100599.88;4932023;29;20032;-86
2022/03/16 09:56:27;;;;;;;55.40;39.58;;;;;;;11.14;89.14;100595.88;4916762;29;20040;-87
2022/03/16 09:58:53;;;;;;;54.58;41.53;;;;;;;11.16;87.88;100590.59;4933342;29;20087;-85
2022/03/16 10:01:19;;;;;;;51.38;39.20;;;;;;;11.04;86.91;100591.88;4933060;29;20040;-85
2022/03/16 10:03:48;;;;;;;54.03;43.47;;;;;;;10.91;86.98;100598.38;4917327;29;20031;-85
2022/03/16 10:06:16;;;;;;;51.83;40.92;;;;;;;10.81;86.88;100599.59;4933071;29;20059;-86
2022/03/16 10:08:42;;;;;;;50.25;39.72;;;;;;;10.69;86.84;100583.44;4933186;29;20028;-84
2022/03/16 10:14:05;;;;;;;54.50;42.60;;;;;;;10.73;89.08;100595.47;4919113;29;20063;-85
2022/03/16 10:17:43;;;;;;;46.30;40.40;;;;;;;10.85;88.94;100602.03;4933139;29;20032;-84
2022/03/16 10:19:19;;;;;;;59.92;45.05;;;;;;;10.84;88.11;100604.72;4918266;29;20182;-85
2022/03/16 10:22:00;;;;;;;48.63;39.13;;;;;;;10.93;88.10;100604.41;4934828;29;20035;-85
2022/03/16 10:24:29;;;;;;;51.13;40.13;;;;;;;11.00;86.52;100611.13;4935315;29;20087;-85
2022/03/16 10:26:58;;;;;;;53.13;42.55;;;;;;;10.89;85.99;100598.44;4925591;28;20044;-85
2022/03/16 10:29:25;;;;;;;56.97;43.45;;;;;;;10.93;86.41;100600.03;4899892;29;20582;-85
2022/03/16 10:32:04;;;;;;;60.90;45.35;;;;;;;10.93;85.21;100614.81;4899707;29;20048;-87
2022/03/16 10:34:31;;;;;;;62.25;46.45;;;;;;;10.83;86.06;100593.44;4899543;29;20111;-83
2022/03/16 10:36:59;;;;;;;51.35;40.60;;;;;;;10.93;84.62;100613.06;4915422;29;20071;-82
2022/03/16 10:39:36;;;;;;;45.67;38.63;;;;;;;10.94;85.20;100624.34;4915274;29;20128;-81
2022/03/16 10:48:19;;;;;;;50.08;36.83;;;;;;;11.05;84.48;100635.28;4915238;29;20183;-81
2022/03/16 10:50:46;;;;;;;48.00;36.72;;;;;;;11.06;83.86;100620.50;4899315;29;20048;-79
2022/03/16 10:53:15;;;;;;;47.90;37.40;;;;;;;11.08;83.26;100608.25;4927991;29;20040;-78
2022/03/16 10:55:42;;;;;;;51.67;40.83;;;;;;;11.29;82.35;100628.38;4927021;29;20047;-78
2022/03/16 10:58:08;;;;;;;45.83;38.88;;;;;;;11.28;82.91;100605.81;4935185;29;20392;-79
2022/03/16 11:00:35;;;;;;;47.13;39.10;;;;;;;11.55;81.11;100630.13;4934909;29;20032;-78
2022/03/16 11:03:06;;;;;;;44.47;34.75;;;;;;;11.55;80.25;100629.28;4935078;29;20035;-79
2022/03/16 11:05:37;;;;;;;46.05;36.88;;;;;;;11.49;79.88;100632.91;4935027;29;20114;-80
2022/03/16 11:08:07;;;;;;;51.15;41.47;;;;;;;11.47;78.59;100630.38;4936375;29;20034;-80
2022/03/16 11:10:43;;;;;;;58.95;44.85;;;;;;;11.46;78.91;100601.72;4934785;29;20428;-81
2022/03/16 11:13:28;;;;;;;70.55;51.47;;;;;;;11.62;79.23;100625.53;4934916;29;20489;-81
2022/03/16 11:15:56;;;;;;;55.80;42.92;;;;;;;11.64;79.82;100621.97;4934931;28;20028;-86